createdAt,value
2017-10-11T00:03:15.916Z,53.07
2017-10-11T00:08:17.840Z,53.00
2017-10-11T00:13:19.769Z,55.73
2017-10-11T00:18:21.686Z,54.43
2017-10-11T00:23:24.332Z,51.07
2017-10-11T00:28:26.277Z,54.30
2017-10-11T00:33:28.207Z,49.77
2017-10-11T00:38:30.187Z,45.47
2017-10-11T00:43:33.695Z,46.20
2017-10-11T00:48:36.396Z,46.23
2017-10-11T00:53:38.392Z,39.17
2017-10-11T00:58:41.124Z,46.53
2017-10-11T01:03:43.073Z,43.13
2017-10-11T01:08:45.861Z,36.97
2017-10-11T01:13:47.774Z,37.40
2017-10-11T01:18:49.713Z,44.60
2017-10-11T01:23:51.705Z,39.03
2017-10-11T01:28:53.719Z,36.60
2017-10-11T01:33:55.852Z,39.07
2017-10-11T01:38:58.647Z,38.67
2017-10-11T01:44:00.683Z,38.20
2017-10-11T01:49:03.456Z,32.83
2017-10-11T01:54:05.432Z,33.20
2017-10-11T01:59:07.396Z,31.17
2017-10-11T02:04:09.375Z,42.20
2017-10-11T02:09:11.314Z,32.60
2017-10-11T02:14:14.016Z,35.27
2017-10-11T02:19:15.921Z,34.80
2017-10-11T02:24:17.864Z,33.10
2017-10-11T02:29:20.564Z,35.27
2017-10-11T02:34:22.568Z,37.20
2017-10-11T02:39:24.454Z,34.00
2017-10-11T02:44:26.375Z,35.20
2017-10-11T02:49:28.269Z,38.33
2017-10-11T02:54:30.180Z,36.43
2017-10-11T02:59:32.104Z,39.73
2017-10-11T03:04:34.735Z,36.13
2017-10-11T03:09:36.658Z,34.60
2017-10-11T03:14:38.567Z,40.27
2017-10-11T03:19:40.458Z,34.80
2017-10-11T03:24:42.395Z,37.57
2017-10-11T03:29:46.422Z,33.10
2017-10-11T03:34:49.251Z,31.37
2017-10-11T03:39:51.219Z,29.93
2017-10-11T03:44:53.164Z,28.70
2017-10-11T03:49:55.087Z,30.83
2017-10-11T03:54:57.007Z,30.27
2017-10-11T03:59:58.903Z,31.13
2017-10-11T04:05:00.844Z,27.17
2017-10-11T04:10:02.787Z,31.03
2017-10-11T04:15:04.731Z,30.40
2017-10-11T04:20:07.423Z,34.87
2017-10-11T04:25:09.348Z,28.80
2017-10-11T04:30:11.298Z,27.50
2017-10-11T04:35:13.388Z,26.57
2017-10-11T04:40:15.328Z,23.80
2017-10-11T04:45:17.307Z,26.47
2017-10-11T04:50:19.244Z,25.50
2017-10-11T04:55:21.215Z,25.03
2017-10-11T05:00:23.204Z,22.47
2017-10-11T05:05:25.381Z,23.73
2017-10-11T05:10:28.052Z,23.80
2017-10-11T05:15:30.108Z,33.53
2017-10-11T05:20:32.040Z,31.20
2017-10-11T05:25:34.031Z,41.33
2017-10-11T05:30:36.679Z,33.27
2017-10-11T05:35:38.645Z,30.73
2017-10-11T05:40:43.608Z,35.63
2017-10-11T05:45:46.201Z,29.37
2017-10-11T05:50:48.123Z,32.53
2017-10-11T05:55:50.037Z,31.67
2017-10-11T06:00:51.971Z,32.40
2017-10-11T06:05:53.952Z,42.20
2017-10-11T06:10:55.995Z,35.20
2017-10-11T06:15:57.967Z,35.17
2017-10-11T06:21:00.642Z,39.10
2017-10-11T06:26:02.667Z,37.00
2017-10-11T06:31:04.597Z,32.67
2017-10-11T06:36:06.546Z,30.60
2017-10-11T06:41:08.451Z,35.17
2017-10-11T06:46:10.372Z,32.43
2017-10-11T06:51:12.270Z,26.20
2017-10-11T06:56:14.233Z,31.53
2017-10-11T07:01:16.199Z,30.97
2017-10-11T07:06:18.133Z,32.20
2017-10-11T07:11:20.087Z,23.00
2017-10-11T07:16:22.034Z,30.33
2017-10-11T07:21:24.766Z,27.43
2017-10-11T07:26:27.461Z,28.40
2017-10-11T07:31:29.369Z,19.40
2017-10-11T07:36:31.322Z,21.10
2017-10-11T07:41:33.225Z,21.37
2017-10-11T07:46:35.143Z,20.10
2017-10-11T07:51:37.113Z,24.07
2017-10-11T07:56:39.831Z,19.53
2017-10-11T08:01:42.515Z,19.83
2017-10-11T08:06:44.483Z,19.37
2017-10-11T08:11:46.427Z,24.33
2017-10-11T08:16:48.362Z,17.40
2017-10-11T08:21:51.010Z,18.17
2017-10-11T08:26:52.945Z,18.60
2017-10-11T08:31:54.878Z,21.87
2017-10-11T08:36:56.851Z,35.20
2017-10-11T08:41:58.792Z,25.50
2017-10-11T08:47:01.563Z,25.03
2017-10-11T08:52:03.577Z,28.47
2017-10-11T08:57:05.499Z,26.67
2017-10-11T09:02:07.418Z,23.80
2017-10-11T09:07:10.102Z,22.30
2017-10-11T09:12:12.039Z,18.80
2017-10-11T09:17:13.992Z,33.57
2017-10-11T09:22:17.019Z,22.47
2017-10-11T09:27:18.984Z,17.10
2017-10-11T09:32:21.708Z,18.63
2017-10-11T09:37:24.451Z,20.20
2017-10-11T09:42:26.781Z,12.57
2017-10-11T09:47:29.025Z,11.30
2017-10-11T09:52:31.065Z,11.13
2017-10-11T09:57:33.844Z,10.03
2017-10-11T10:02:35.811Z,13.63
2017-10-11T10:07:37.722Z,11.60
2017-10-11T10:12:39.886Z,9.87
2017-10-11T10:17:41.804Z,8.93
2017-10-11T10:22:44.483Z,7.77
2017-10-11T10:27:46.400Z,7.60
2017-10-11T10:32:48.423Z,7.37
2017-10-11T10:37:51.086Z,9.93
2017-10-11T10:42:53.034Z,6.90
2017-10-11T10:47:55.021Z,11.03
2017-10-11T10:52:56.983Z,8.17
2017-10-11T10:57:58.899Z,12.40
2017-10-11T11:03:07.436Z,9.07
2017-10-11T11:08:10.915Z,5.43
2017-10-11T11:13:12.907Z,7.67
2017-10-11T11:18:16.371Z,4.17
2017-10-11T11:23:19.806Z,3.80
2017-10-11T11:28:31.281Z,4.23
2017-10-11T11:33:33.804Z,4.10
2017-10-11T11:38:36.474Z,4.03
2017-10-11T11:43:38.397Z,3.90
2017-10-11T11:48:44.937Z,3.70
2017-10-11T11:53:57.166Z,6.77
2017-10-11T11:58:59.942Z,4.53
2017-10-11T12:04:01.997Z,3.83
2017-10-11T12:09:04.726Z,4.10
2017-10-11T12:14:07.406Z,4.00
2017-10-11T12:19:09.372Z,6.80
2017-10-11T12:24:12.046Z,8.70
2017-10-11T12:29:13.978Z,4.93
2017-10-11T12:34:15.880Z,6.97
2017-10-11T12:39:18.536Z,5.95
2017-10-11T12:44:20.436Z,5.60
2017-10-11T12:49:22.329Z,7.73
2017-10-11T12:54:24.240Z,3.70
2017-10-11T12:59:26.246Z,6.53
2017-10-11T13:04:28.137Z,4.80
2017-10-11T13:09:30.041Z,7.47
2017-10-11T13:14:31.934Z,9.20
2017-10-11T13:19:34.575Z,6.87
2017-10-11T13:24:36.460Z,12.97
2017-10-11T13:29:39.100Z,8.17
2017-10-11T13:34:41.008Z,9.13
2017-10-11T13:39:42.915Z,9.37
2017-10-11T13:44:44.793Z,9.43
2017-10-11T13:49:46.683Z,10.00
2017-10-11T13:54:48.575Z,16.10
2017-10-11T13:59:51.413Z,7.67
2017-10-11T14:04:53.423Z,12.90
2017-10-11T14:09:55.388Z,8.90
2017-10-11T14:14:57.385Z,14.03
2017-10-11T14:19:59.364Z,10.90
2017-10-11T14:25:01.534Z,7.43
2017-10-11T14:30:03.595Z,8.47
2017-10-11T14:35:05.585Z,6.10
2017-10-11T14:40:08.391Z,6.60
2017-10-11T14:45:10.477Z,16.20
2017-10-11T14:50:13.166Z,8.90
2017-10-11T14:55:15.431Z,9.93
2017-10-11T15:00:17.890Z,11.00
2017-10-11T15:05:20.241Z,7.00
2017-10-11T15:10:25.124Z,6.60
2017-10-11T15:15:28.457Z,6.63
2017-10-11T15:20:32.009Z,5.47
2017-10-11T15:25:34.242Z,4.50
2017-10-11T15:30:37.090Z,8.77
2017-10-11T15:35:39.285Z,4.13
2017-10-11T15:40:41.504Z,4.03
2017-10-11T15:45:43.717Z,3.83
2017-10-11T15:50:45.869Z,3.77
2017-10-11T15:55:48.251Z,5.10
2017-10-11T16:00:52.912Z,4.23
2017-10-11T16:05:55.720Z,6.57
2017-10-11T16:10:57.650Z,4.37
2017-10-11T16:15:59.574Z,6.37
2017-10-11T16:21:01.698Z,5.90
2017-10-11T16:26:03.862Z,5.00
2017-10-11T16:31:06.289Z,5.20
2017-10-11T16:36:08.245Z,4.90
2017-10-11T16:41:11.344Z,5.53
2017-10-11T16:46:13.257Z,5.90
2017-10-11T16:51:18.554Z,5.47
2017-10-11T16:56:21.512Z,6.03
2017-10-11T17:01:23.704Z,6.23
2017-10-11T17:06:27.072Z,5.20
2017-10-11T17:11:35.421Z,8.23
2017-10-11T17:16:40.191Z,14.57
2017-10-11T17:21:42.457Z,5.67
2017-10-11T17:26:46.035Z,6.73
2017-10-11T17:31:50.304Z,8.03
2017-10-11T17:36:58.444Z,6.70
2017-10-11T17:42:01.339Z,7.10
2017-10-11T17:47:04.972Z,6.93
2017-10-11T17:52:07.939Z,8.93
2017-10-11T17:57:14.263Z,10.20
2017-10-11T18:02:16.375Z,14.63
2017-10-11T18:07:19.799Z,11.23
2017-10-11T18:12:23.202Z,12.40
2017-10-11T18:17:26.204Z,9.30
2017-10-11T18:22:32.464Z,11.17
2017-10-11T18:27:39.046Z,8.47
2017-10-11T18:32:44.568Z,9.17
2017-10-11T18:37:53.349Z,10.03
2017-10-11T18:42:56.044Z,11.80
2017-10-11T18:47:57.995Z,10.67
2017-10-11T18:52:59.948Z,8.50
2017-10-11T18:58:02.718Z,9.07
2017-10-11T19:03:04.636Z,10.63
2017-10-11T19:08:06.629Z,12.83
2017-10-11T19:13:08.566Z,13.23
2017-10-11T19:18:11.264Z,14.83
2017-10-11T19:23:13.343Z,12.63
2017-10-11T19:28:15.346Z,10.20
2017-10-11T19:33:17.255Z,11.67
2017-10-11T19:38:19.247Z,29.30
2017-10-11T19:43:21.194Z,7.43
2017-10-11T19:48:23.328Z,19.63
2017-10-11T19:53:26.108Z,12.57
2017-10-11T19:58:28.093Z,6.20
2017-10-11T20:03:30.310Z,6.50
2017-10-11T20:08:35.486Z,6.43
2017-10-11T20:13:40.513Z,6.43
2017-10-11T20:18:43.629Z,8.73
2017-10-11T20:23:45.783Z,8.30
2017-10-11T20:28:47.734Z,6.20
2017-10-11T20:33:49.630Z,9.43
2017-10-11T20:38:51.849Z,6.30
2017-10-11T20:43:53.772Z,5.97
2017-10-11T20:48:55.788Z,4.90
2017-10-11T20:53:57.844Z,13.57
2017-10-11T20:58:59.776Z,8.73
2017-10-11T21:04:01.716Z,7.13
2017-10-11T21:09:03.713Z,4.40
2017-10-11T21:14:06.350Z,6.33
2017-10-11T21:19:08.265Z,9.20
2017-10-11T21:24:10.222Z,6.20
2017-10-11T21:29:12.143Z,5.03
2017-10-11T21:34:14.046Z,5.47
2017-10-11T21:39:16.840Z,7.67
2017-10-11T21:44:18.899Z,13.83
2017-10-11T21:49:20.898Z,5.80
2017-10-11T21:54:22.831Z,5.57
2017-10-11T21:59:24.763Z,7.43
2017-10-11T22:04:26.659Z,8.90
2017-10-11T22:09:30.344Z,12.33
2017-10-11T22:14:33.447Z,4.83
2017-10-11T22:19:35.334Z,6.57
2017-10-11T22:24:37.303Z,10.53
2017-10-11T22:29:39.215Z,13.13
2017-10-11T22:34:41.201Z,7.43
2017-10-11T22:39:43.164Z,10.33
2017-10-11T22:44:45.055Z,4.83
2017-10-11T22:49:47.037Z,11.07
2017-10-11T22:54:48.955Z,4.30
2017-10-11T22:59:50.919Z,11.20
2017-10-11T23:04:53.051Z,7.20
2017-10-11T23:09:54.975Z,7.10
2017-10-11T23:14:56.912Z,8.20
2017-10-11T23:19:59.651Z,12.93
2017-10-11T23:25:01.575Z,5.07
2017-10-11T23:30:03.492Z,3.97
2017-10-11T23:35:05.400Z,3.90
2017-10-11T23:40:07.286Z,4.90
2017-10-11T23:45:09.235Z,4.47
2017-10-11T23:50:11.200Z,6.80
2017-10-11T23:55:13.162Z,5.33
